Arlington, WI

5:26 AM CDT on October 22, 2014 (GMT -0500)
MW122 - W. Acker Pkwy. | Change Station
CLOSE
Current Station
Personal Weather Station
Location: DeForest, WI
Elevation: 945 ft
Nearby Weather Stations
Active Advisory: Special Statement

Elev 945 ft 43.24 °N, 89.36 °W | Updated 9 seconds ago

Partly Cloudy
Partly Cloudy
25.9 °F
Feels Like 26 °F
N
0.0
Wind Variable Wind from WNW
Gusts 0.0 mph

Today
High -- | Low -- °F
--% Chance of Precip.
Yesterday
High -- | Low -- °F
Precip. -- in
7:19 AM 6:03 PM
Waning Crescent, 2% visible
Pressure 30.32 in
Visibility 0.8 miles
Clouds
Windchill 26 °F
Dew Point 24 °F
Humidity 94%
Rainfall 0.00 in
Snow Depth Not available.
UV Not available.
Pollen 1.50 out of 12
Air Quality Not available.
Flu Activity Sporadic
SPECI KMSN 221015Z AUTO 00000KT 3/4SM R36/P6000FT BR VV002 M02/M02 A3032 RMK AO2 T10171022

More Conditions Fewer Conditions

Pressure 30.32 in
Visibility 0.8 miles
Clouds
Windchill 26 °F
Dew Point 24 °F
Humidity 94%
Rainfall 0.00 in
Snow Depth Not available.
UV Not available.
Pollen 1.50 out of 12
Air Quality Not available.
Flu Activity Sporadic
SPECI KMSN 221015Z AUTO 00000KT 3/4SM R36/P6000FT BR VV002 M02/M02 A3032 RMK AO2 T10171022

More Conditions Fewer Conditions

10-Day Weather Forecast

Almanac

Astronomy

Oct. 22, 2014 Rise Set
Actual Time 7:19 AM CDT 6:03 PM CDT
Civil Twilight 6:50 AM CDT 6:32 PM CDT
Nautical Twilight 6:17 AM CDT 7:05 PM CDT
Astronomical Twilight 5:44 AM CDT 7:38 PM CDT
Moon 5:59 AM CDT 5:31 PM CDT
Length of Visible Light 11h 41m
Length of Day
10h 43m
Tomorrow will be 2m 46s shorter.
Waning Crescent, 2% of the Moon is Illuminated
Today
Waning Crescent
Oct 23
New
Oct 30
First Quarter
Nov 6
Full
Nov 14
Last Quarter

Today's Extremes

State Highs State Lows

Community

WunderPhotos

Upload Photos

1,763,902 photos uploaded!

Nearby

Snow Depth

Station Depth Elevation
No new snow has been reported.

Earthquake Activity

City Distance Mag. Time & Date
No recent earthquake activity has been reported nearby.
Minimum magnitude displayed is 2.5.

Coastal Water Temperatures

Place Temperature
No Stations Reporting

Nearby Weather Stations